Bellevue, Michigan
Current Conditions -  °F | °C
As of 9:15 PM on Monday 22 Dec 2014 (Local Time) from KFPK Reporting Station
Unknown Precip Unknown Precip  
Wind Chill: 26°   Ceiling: 4700
Heat Index: 34°   Visibility: 5mi
Dew Point: 32°   Wind: 9mph
Humidity: 92%   Direction: 100°E
Pressure: 29.82"   Gusts: NA
Location:  42.44°N, 85.02°W
Report Text: KFPK 230215Z AUTO 10008KT 5SM UP SCT035 BKN047 OVC060 01/00 A2982 RMK AO2 T00101002
Loading
Personal Weather Stations






























Interactive Weather Map New forecast layout! Learn more

10-Day Weather Forecast

Advertisements
Track Severe Weather on mobile